sensor_id;sensor_type;location;lat;lon;timestamp;P1;durP1;ratioP1;P2;durP2;ratioP2
65552;SDS011;52465;51.560;14.368;2022-08-21T00:01:50;4.80;;;3.67;;
65552;SDS011;52465;51.560;14.368;2022-08-21T00:04:15;5.38;;;3.72;;
65552;SDS011;52465;51.560;14.368;2022-08-21T00:06:40;4.55;;;4.03;;
65552;SDS011;52465;51.560;14.368;2022-08-21T00:09:06;5.95;;;4.15;;
65552;SDS011;52465;51.560;14.368;2022-08-21T00:11:33;4.95;;;4.10;;
65552;SDS011;52465;51.560;14.368;2022-08-21T00:14:00;4.95;;;3.95;;
65552;SDS011;52465;51.560;14.368;2022-08-21T00:16:26;4.85;;;3.80;;
65552;SDS011;52465;51.560;14.368;2022-08-21T00:18:52;5.72;;;4.20;;
65552;SDS011;52465;51.560;14.368;2022-08-21T00:21:17;5.10;;;3.75;;
65552;SDS011;52465;51.560;14.368;2022-08-21T00:23:42;4.85;;;3.88;;
65552;SDS011;52465;51.560;14.368;2022-08-21T00:26:08;5.28;;;3.95;;
65552;SDS011;52465;51.560;14.368;2022-08-21T00:28:33;4.90;;;4.00;;
65552;SDS011;52465;51.560;14.368;2022-08-21T00:30:59;6.32;;;4.38;;
65552;SDS011;52465;51.560;14.368;2022-08-21T00:33:25;6.50;;;4.10;;
65552;SDS011;52465;51.560;14.368;2022-08-21T00:35:51;4.90;;;4.00;;
65552;SDS011;52465;51.560;14.368;2022-08-21T00:38:17;4.85;;;3.88;;
65552;SDS011;52465;51.560;14.368;2022-08-21T00:40:47;4.28;;;3.80;;
65552;SDS011;52465;51.560;14.368;2022-08-21T00:43:15;5.60;;;4.05;;
65552;SDS011;52465;51.560;14.368;2022-08-21T00:45:43;4.43;;;3.63;;
65552;SDS011;52465;51.560;14.368;2022-08-21T00:48:09;5.90;;;4.53;;
65552;SDS011;52465;51.560;14.368;2022-08-21T00:50:36;5.00;;;3.83;;
65552;SDS011;52465;51.560;14.368;2022-08-21T00:53:05;5.88;;;4.65;;
65552;SDS011;52465;51.560;14.368;2022-08-21T00:55:31;4.43;;;3.88;;
65552;SDS011;52465;51.560;14.368;2022-08-21T00:57:58;4.10;;;3.45;;
65552;SDS011;52465;51.560;14.368;2022-08-21T01:00:26;4.80;;;3.85;;
65552;SDS011;52465;51.560;14.368;2022-08-21T01:02:54;5.55;;;3.97;;
65552;SDS011;52465;51.560;14.368;2022-08-21T01:05:24;4.93;;;4.15;;
65552;SDS011;52465;51.560;14.368;2022-08-21T01:07:50;4.50;;;3.80;;
65552;SDS011;52465;51.560;14.368;2022-08-21T01:10:16;4.30;;;3.67;;
65552;SDS011;52465;51.560;14.368;2022-08-21T01:12:41;4.97;;;3.83;;
65552;SDS011;52465;51.560;14.368;2022-08-21T01:15:07;5.10;;;3.83;;
65552;SDS011;52465;51.560;14.368;2022-08-21T01:17:33;7.43;;;4.03;;
65552;SDS011;52465;51.560;14.368;2022-08-21T01:20:01;6.05;;;4.07;;
65552;SDS011;52465;51.560;14.368;2022-08-21T01:22:29;7.13;;;4.40;;
65552;SDS011;52465;51.560;14.368;2022-08-21T01:24:55;5.03;;;3.53;;
65552;SDS011;52465;51.560;14.368;2022-08-21T01:27:20;3.95;;;3.55;;
65552;SDS011;52465;51.560;14.368;2022-08-21T01:29:51;4.20;;;3.63;;
65552;SDS011;52465;51.560;14.368;2022-08-21T01:32:21;4.32;;;3.80;;
65552;SDS011;52465;51.560;14.368;2022-08-21T01:34:48;4.10;;;3.38;;
65552;SDS011;52465;51.560;14.368;2022-08-21T01:37:14;5.55;;;4.25;;
65552;SDS011;52465;51.560;14.368;2022-08-21T01:39:41;5.82;;;3.67;;
65552;SDS011;52465;51.560;14.368;2022-08-21T01:42:07;4.20;;;3.40;;
65552;SDS011;52465;51.560;14.368;2022-08-21T01:44:32;5.00;;;3.90;;
65552;SDS011;52465;51.560;14.368;2022-08-21T01:47:02;5.13;;;3.83;;
65552;SDS011;52465;51.560;14.368;2022-08-21T01:49:29;4.50;;;3.70;;
65552;SDS011;52465;51.560;14.368;2022-08-21T01:51:55;4.40;;;3.67;;
65552;SDS011;52465;51.560;14.368;2022-08-21T01:54:20;5.18;;;3.80;;
65552;SDS011;52465;51.560;14.368;2022-08-21T01:56:47;4.88;;;3.72;;
65552;SDS011;52465;51.560;14.368;2022-08-21T01:59:14;4.70;;;3.90;;
65552;SDS011;52465;51.560;14.368;2022-08-21T02:01:40;4.10;;;3.70;;
65552;SDS011;52465;51.560;14.368;2022-08-21T02:04:06;4.22;;;3.72;;
65552;SDS011;52465;51.560;14.368;2022-08-21T02:06:32;4.43;;;3.30;;
65552;SDS011;52465;51.560;14.368;2022-08-21T02:08:58;4.45;;;3.70;;
65552;SDS011;52465;51.560;14.368;2022-08-21T02:11:23;5.13;;;4.22;;
65552;SDS011;52465;51.560;14.368;2022-08-21T02:13:49;4.53;;;4.00;;
65552;SDS011;52465;51.560;14.368;2022-08-21T02:16:14;4.40;;;3.75;;
65552;SDS011;52465;51.560;14.368;2022-08-21T02:18:40;5.60;;;4.35;;
65552;SDS011;52465;51.560;14.368;2022-08-21T02:21:06;5.85;;;4.20;;
65552;SDS011;52465;51.560;14.368;2022-08-21T02:23:31;5.18;;;3.95;;
65552;SDS011;52465;51.560;14.368;2022-08-21T02:25:57;5.55;;;3.53;;
65552;SDS011;52465;51.560;14.368;2022-08-21T02:28:24;4.38;;;3.67;;
65552;SDS011;52465;51.560;14.368;2022-08-21T02:30:50;4.53;;;3.67;;
65552;SDS011;52465;51.560;14.368;2022-08-21T02:33:16;4.78;;;3.67;;
65552;SDS011;52465;51.560;14.368;2022-08-21T02:35:43;5.25;;;3.63;;
65552;SDS011;52465;51.560;14.368;2022-08-21T02:38:11;5.25;;;4.28;;
65552;SDS011;52465;51.560;14.368;2022-08-21T02:40:39;4.78;;;4.28;;
65552;SDS011;52465;51.560;14.368;2022-08-21T02:43:07;4.40;;;3.65;;
65552;SDS011;52465;51.560;14.368;2022-08-21T02:45:33;4.22;;;3.83;;
65552;SDS011;52465;51.560;14.368;2022-08-21T02:48:01;5.18;;;3.92;;
65552;SDS011;52465;51.560;14.368;2022-08-21T02:50:30;4.72;;;3.85;;
65552;SDS011;52465;51.560;14.368;2022-08-21T02:53:00;4.70;;;3.85;;
65552;SDS011;52465;51.560;14.368;2022-08-21T02:55:26;5.03;;;3.97;;
65552;SDS011;52465;51.560;14.368;2022-08-21T02:57:54;4.65;;;3.92;;
65552;SDS011;52465;51.560;14.368;2022-08-21T03:00:22;4.35;;;3.90;;
65552;SDS011;52465;51.560;14.368;2022-08-21T03:02:50;4.43;;;3.67;;
65552;SDS011;52465;51.560;14.368;2022-08-21T03:05:16;4.45;;;3.90;;
65552;SDS011;52465;51.560;14.368;2022-08-21T03:07:43;4.35;;;3.95;;
65552;SDS011;52465;51.560;14.368;2022-08-21T03:10:09;4.85;;;3.70;;
65552;SDS011;52465;51.560;14.368;2022-08-21T03:12:35;5.60;;;3.85;;
65552;SDS011;52465;51.560;14.368;2022-08-21T03:15:05;4.90;;;3.90;;
65552;SDS011;52465;51.560;14.368;2022-08-21T03:17:32;4.65;;;3.67;;
65552;SDS011;52465;51.560;14.368;2022-08-21T03:19:58;4.32;;;3.92;;
65552;SDS011;52465;51.560;14.368;2022-08-21T03:22:24;4.68;;;3.92;;
65552;SDS011;52465;51.560;14.368;2022-08-21T03:24:50;4.20;;;3.80;;
65552;SDS011;52465;51.560;14.368;2022-08-21T03:27:16;5.43;;;4.10;;
65552;SDS011;52465;51.560;14.368;2022-08-21T03:29:42;4.80;;;4.03;;
65552;SDS011;52465;51.560;14.368;2022-08-21T03:32:07;4.80;;;3.78;;
65552;SDS011;52465;51.560;14.368;2022-08-21T03:34:36;5.70;;;4.43;;
65552;SDS011;52465;51.560;14.368;2022-08-21T03:37:03;12.82;;;7.70;;
65552;SDS011;52465;51.560;14.368;2022-08-21T03:39:29;10.93;;;7.80;;
65552;SDS011;52465;51.560;14.368;2022-08-21T03:41:55;12.13;;;6.30;;
65552;SDS011;52465;51.560;14.368;2022-08-21T03:44:24;9.52;;;6.40;;
65552;SDS011;52465;51.560;14.368;2022-08-21T03:46:53;9.30;;;6.53;;
65552;SDS011;52465;51.560;14.368;2022-08-21T03:49:19;8.93;;;6.30;;
65552;SDS011;52465;51.560;14.368;2022-08-21T03:51:44;9.18;;;6.25;;
65552;SDS011;52465;51.560;14.368;2022-08-21T03:54:10;8.32;;;6.15;;
65552;SDS011;52465;51.560;14.368;2022-08-21T03:56:35;8.00;;;5.68;;
65552;SDS011;52465;51.560;14.368;2022-08-21T03:59:00;7.97;;;5.65;;
65552;SDS011;52465;51.560;14.368;2022-08-21T04:01:27;9.02;;;6.07;;
65552;SDS011;52465;51.560;14.368;2022-08-21T04:03:53;7.18;;;6.00;;
65552;SDS011;52465;51.560;14.368;2022-08-21T04:06:18;8.57;;;5.57;;
65552;SDS011;52465;51.560;14.368;2022-08-21T04:08:44;9.57;;;5.85;;
65552;SDS011;52465;51.560;14.368;2022-08-21T04:11:09;8.30;;;5.55;;
65552;SDS011;52465;51.560;14.368;2022-08-21T04:13:38;8.93;;;5.80;;
65552;SDS011;52465;51.560;14.368;2022-08-21T04:16:03;7.95;;;5.88;;
65552;SDS011;52465;51.560;14.368;2022-08-21T04:18:29;6.93;;;5.18;;
65552;SDS011;52465;51.560;14.368;2022-08-21T04:20:54;10.10;;;5.93;;
65552;SDS011;52465;51.560;14.368;2022-08-21T04:23:22;6.68;;;5.57;;
65552;SDS011;52465;51.560;14.368;2022-08-21T04:25:48;7.07;;;5.50;;
65552;SDS011;52465;51.560;14.368;2022-08-21T04:28:13;6.05;;;5.22;;
65552;SDS011;52465;51.560;14.368;2022-08-21T04:30:39;8.27;;;5.35;;
65552;SDS011;52465;51.560;14.368;2022-08-21T04:33:04;7.63;;;5.03;;
65552;SDS011;52465;51.560;14.368;2022-08-21T04:35:29;6.47;;;5.00;;
65552;SDS011;52465;51.560;14.368;2022-08-21T04:37:55;6.90;;;5.32;;
65552;SDS011;52465;51.560;14.368;2022-08-21T04:40:21;7.35;;;5.25;;
65552;SDS011;52465;51.560;14.368;2022-08-21T04:42:49;8.32;;;5.30;;
65552;SDS011;52465;51.560;14.368;2022-08-21T04:45:21;7.10;;;5.25;;
65552;SDS011;52465;51.560;14.368;2022-08-21T04:47:48;6.88;;;5.13;;
65552;SDS011;52465;51.560;14.368;2022-08-21T04:52:43;6.38;;;4.97;;
65552;SDS011;52465;51.560;14.368;2022-08-21T04:55:08;8.35;;;5.55;;
65552;SDS011;52465;51.560;14.368;2022-08-21T04:57:34;7.20;;;5.40;;
65552;SDS011;52465;51.560;14.368;2022-08-21T05:00:00;7.05;;;5.18;;
65552;SDS011;52465;51.560;14.368;2022-08-21T05:02:29;9.10;;;6.10;;
65552;SDS011;52465;51.560;14.368;2022-08-21T05:04:57;8.18;;;4.75;;
65552;SDS011;52465;51.560;14.368;2022-08-21T05:07:24;7.13;;;5.53;;
65552;SDS011;52465;51.560;14.368;2022-08-21T05:09:53;6.15;;;4.97;;
65552;SDS011;52465;51.560;14.368;2022-08-21T05:12:18;5.68;;;4.75;;
65552;SDS011;52465;51.560;14.368;2022-08-21T05:14:44;7.82;;;4.75;;
65552;SDS011;52465;51.560;14.368;2022-08-21T05:17:09;6.40;;;5.00;;
65552;SDS011;52465;51.560;14.368;2022-08-21T05:19:35;5.95;;;4.95;;
65552;SDS011;52465;51.560;14.368;2022-08-21T05:22:00;6.55;;;4.75;;
65552;SDS011;52465;51.560;14.368;2022-08-21T05:24:26;5.32;;;4.53;;
65552;SDS011;52465;51.560;14.368;2022-08-21T05:26:52;8.10;;;5.18;;
65552;SDS011;52465;51.560;14.368;2022-08-21T05:29:17;7.10;;;5.18;;
65552;SDS011;52465;51.560;14.368;2022-08-21T05:31:44;6.97;;;5.00;;
65552;SDS011;52465;51.560;14.368;2022-08-21T05:34:09;6.68;;;4.93;;
65552;SDS011;52465;51.560;14.368;2022-08-21T05:36:35;5.97;;;4.78;;
65552;SDS011;52465;51.560;14.368;2022-08-21T05:39:01;6.70;;;5.30;;
65552;SDS011;52465;51.560;14.368;2022-08-21T05:41:27;5.80;;;4.60;;
65552;SDS011;52465;51.560;14.368;2022-08-21T05:43:52;5.72;;;4.97;;
65552;SDS011;52465;51.560;14.368;2022-08-21T05:46:17;6.63;;;4.47;;
65552;SDS011;52465;51.560;14.368;2022-08-21T05:48:42;5.88;;;4.57;;
65552;SDS011;52465;51.560;14.368;2022-08-21T05:51:09;6.22;;;5.05;;
65552;SDS011;52465;51.560;14.368;2022-08-21T05:53:38;6.87;;;5.20;;
65552;SDS011;52465;51.560;14.368;2022-08-21T05:56:04;6.03;;;4.78;;
65552;SDS011;52465;51.560;14.368;2022-08-21T05:58:30;7.30;;;4.53;;
65552;SDS011;52465;51.560;14.368;2022-08-21T06:00:57;6.03;;;4.78;;
65552;SDS011;52465;51.560;14.368;2022-08-21T06:03:24;6.30;;;4.80;;
65552;SDS011;52465;51.560;14.368;2022-08-21T06:05:53;5.97;;;4.50;;
65552;SDS011;52465;51.560;14.368;2022-08-21T06:08:20;6.82;;;4.65;;
65552;SDS011;52465;51.560;14.368;2022-08-21T06:10:47;6.30;;;4.68;;
65552;SDS011;52465;51.560;14.368;2022-08-21T06:13:14;7.22;;;4.70;;
65552;SDS011;52465;51.560;14.368;2022-08-21T06:15:40;5.13;;;4.50;;
65552;SDS011;52465;51.560;14.368;2022-08-21T06:18:05;6.13;;;4.70;;
65552;SDS011;52465;51.560;14.368;2022-08-21T06:20:31;5.72;;;4.93;;
65552;SDS011;52465;51.560;14.368;2022-08-21T06:22:57;6.20;;;4.40;;
65552;SDS011;52465;51.560;14.368;2022-08-21T06:25:23;5.93;;;4.28;;
65552;SDS011;52465;51.560;14.368;2022-08-21T06:27:49;6.25;;;4.80;;
65552;SDS011;52465;51.560;14.368;2022-08-21T06:30:14;5.18;;;4.45;;
65552;SDS011;52465;51.560;14.368;2022-08-21T06:32:39;5.82;;;4.53;;
65552;SDS011;52465;51.560;14.368;2022-08-21T06:35:05;5.82;;;4.65;;
65552;SDS011;52465;51.560;14.368;2022-08-21T06:37:31;5.35;;;4.47;;
65552;SDS011;52465;51.560;14.368;2022-08-21T06:39:57;5.38;;;4.30;;
65552;SDS011;52465;51.560;14.368;2022-08-21T06:42:22;6.32;;;4.53;;
65552;SDS011;52465;51.560;14.368;2022-08-21T06:44:47;5.95;;;4.55;;
65552;SDS011;52465;51.560;14.368;2022-08-21T06:47:13;6.15;;;4.72;;
65552;SDS011;52465;51.560;14.368;2022-08-21T06:49:38;5.22;;;4.05;;
65552;SDS011;52465;51.560;14.368;2022-08-21T06:52:07;5.28;;;3.60;;
65552;SDS011;52465;51.560;14.368;2022-08-21T06:54:35;5.45;;;4.22;;
65552;SDS011;52465;51.560;14.368;2022-08-21T06:57:00;4.65;;;4.00;;
65552;SDS011;52465;51.560;14.368;2022-08-21T06:59:26;5.32;;;4.18;;
65552;SDS011;52465;51.560;14.368;2022-08-21T07:01:51;6.13;;;4.13;;
65552;SDS011;52465;51.560;14.368;2022-08-21T07:04:16;4.40;;;3.95;;
65552;SDS011;52465;51.560;14.368;2022-08-21T07:06:42;4.50;;;4.00;;
65552;SDS011;52465;51.560;14.368;2022-08-21T07:09:07;5.38;;;4.47;;
65552;SDS011;52465;51.560;14.368;2022-08-21T07:11:32;5.53;;;4.00;;
65552;SDS011;52465;51.560;14.368;2022-08-21T07:14:00;4.90;;;4.22;;
65552;SDS011;52465;51.560;14.368;2022-08-21T07:16:25;4.50;;;3.80;;
65552;SDS011;52465;51.560;14.368;2022-08-21T07:18:51;5.70;;;4.45;;
65552;SDS011;52465;51.560;14.368;2022-08-21T07:21:16;4.50;;;3.55;;
65552;SDS011;52465;51.560;14.368;2022-08-21T07:23:45;5.03;;;4.10;;
65552;SDS011;52465;51.560;14.368;2022-08-21T07:26:14;4.05;;;3.63;;
65552;SDS011;52465;51.560;14.368;2022-08-21T07:28:42;4.50;;;3.70;;
65552;SDS011;52465;51.560;14.368;2022-08-21T07:31:08;5.38;;;4.07;;
65552;SDS011;52465;51.560;14.368;2022-08-21T07:33:35;5.18;;;3.97;;
65552;SDS011;52465;51.560;14.368;2022-08-21T07:36:02;4.25;;;3.85;;
65552;SDS011;52465;51.560;14.368;2022-08-21T07:38:27;5.65;;;3.78;;
65552;SDS011;52465;51.560;14.368;2022-08-21T07:40:54;4.93;;;4.10;;
65552;SDS011;52465;51.560;14.368;2022-08-21T07:43:21;5.35;;;4.03;;
65552;SDS011;52465;51.560;14.368;2022-08-21T07:45:47;5.20;;;4.00;;
65552;SDS011;52465;51.560;14.368;2022-08-21T07:48:14;4.88;;;3.85;;
65552;SDS011;52465;51.560;14.368;2022-08-21T07:50:39;4.35;;;3.78;;
65552;SDS011;52465;51.560;14.368;2022-08-21T07:53:05;4.00;;;3.35;;
65552;SDS011;52465;51.560;14.368;2022-08-21T07:55:32;4.20;;;3.67;;
65552;SDS011;52465;51.560;14.368;2022-08-21T07:57:57;5.13;;;3.58;;
65552;SDS011;52465;51.560;14.368;2022-08-21T08:00:24;4.85;;;3.88;;
65552;SDS011;52465;51.560;14.368;2022-08-21T08:02:51;4.68;;;3.58;;
65552;SDS011;52465;51.560;14.368;2022-08-21T08:05:19;4.60;;;3.67;;
65552;SDS011;52465;51.560;14.368;2022-08-21T08:07:46;4.20;;;3.70;;
65552;SDS011;52465;51.560;14.368;2022-08-21T08:10:12;4.60;;;3.67;;
65552;SDS011;52465;51.560;14.368;2022-08-21T08:12:39;4.40;;;3.60;;
65552;SDS011;52465;51.560;14.368;2022-08-21T08:15:08;4.50;;;3.40;;
65552;SDS011;52465;51.560;14.368;2022-08-21T08:17:37;4.63;;;3.35;;
65552;SDS011;52465;51.560;14.368;2022-08-21T08:20:03;3.88;;;2.97;;
65552;SDS011;52465;51.560;14.368;2022-08-21T08:22:30;3.90;;;3.33;;
65552;SDS011;52465;51.560;14.368;2022-08-21T08:24:55;4.38;;;3.58;;
65552;SDS011;52465;51.560;14.368;2022-08-21T08:27:21;3.95;;;3.55;;
65552;SDS011;52465;51.560;14.368;2022-08-21T08:29:46;4.20;;;3.40;;
65552;SDS011;52465;51.560;14.368;2022-08-21T08:32:13;4.70;;;3.63;;
65552;SDS011;52465;51.560;14.368;2022-08-21T08:34:39;5.65;;;3.85;;
65552;SDS011;52465;51.560;14.368;2022-08-21T08:37:04;4.05;;;3.45;;
65552;SDS011;52465;51.560;14.368;2022-08-21T08:39:32;4.20;;;3.33;;
65552;SDS011;52465;51.560;14.368;2022-08-21T08:41:59;4.22;;;3.30;;
65552;SDS011;52465;51.560;14.368;2022-08-21T08:44:34;4.03;;;3.25;;
65552;SDS011;52465;51.560;14.368;2022-08-21T08:47:00;3.13;;;2.80;;
65552;SDS011;52465;51.560;14.368;2022-08-21T08:54:30;4.75;;;3.20;;
65552;SDS011;52465;51.560;14.368;2022-08-21T08:57:00;4.47;;;3.40;;
65552;SDS011;52465;51.560;14.368;2022-08-21T08:59:31;3.78;;;3.20;;
65552;SDS011;52465;51.560;14.368;2022-08-21T09:02:04;5.13;;;3.35;;
65552;SDS011;52465;51.560;14.368;2022-08-21T09:04:30;4.75;;;3.78;;
65552;SDS011;52465;51.560;14.368;2022-08-21T09:12:38;5.00;;;3.15;;
65552;SDS011;52465;51.560;14.368;2022-08-21T09:15:23;3.42;;;2.92;;
65552;SDS011;52465;51.560;14.368;2022-08-21T09:18:13;3.40;;;2.90;;
65552;SDS011;52465;51.560;14.368;2022-08-21T09:23:49;3.45;;;2.80;;
65552;SDS011;52465;51.560;14.368;2022-08-21T09:26:25;3.33;;;2.75;;
65552;SDS011;52465;51.560;14.368;2022-08-21T09:31:28;2.83;;;2.50;;
65552;SDS011;52465;51.560;14.368;2022-08-21T09:33:59;3.30;;;2.60;;
65552;SDS011;52465;51.560;14.368;2022-08-21T09:36:39;3.28;;;2.70;;
65552;SDS011;52465;51.560;14.368;2022-08-21T09:39:08;3.22;;;2.78;;
65552;SDS011;52465;51.560;14.368;2022-08-21T09:41:35;3.35;;;2.65;;
65552;SDS011;52465;51.560;14.368;2022-08-21T09:44:03;3.63;;;2.83;;
65552;SDS011;52465;51.560;14.368;2022-08-21T09:46:30;3.53;;;2.80;;
65552;SDS011;52465;51.560;14.368;2022-08-21T09:48:56;3.30;;;2.80;;
65552;SDS011;52465;51.560;14.368;2022-08-21T09:51:28;3.15;;;2.63;;
65552;SDS011;52465;51.560;14.368;2022-08-21T09:56:51;4.05;;;2.63;;
65552;SDS011;52465;51.560;14.368;2022-08-21T09:59:39;2.92;;;2.22;;
65552;SDS011;52465;51.560;14.368;2022-08-21T10:05:07;3.08;;;2.40;;
65552;SDS011;52465;51.560;14.368;2022-08-21T10:10:07;3.25;;;2.42;;
65552;SDS011;52465;51.560;14.368;2022-08-21T10:12:38;3.85;;;2.67;;
65552;SDS011;52465;51.560;14.368;2022-08-21T10:15:13;3.83;;;2.55;;
65552;SDS011;52465;51.560;14.368;2022-08-21T10:20:40;2.72;;;2.25;;
65552;SDS011;52465;51.560;14.368;2022-08-21T10:26:18;4.72;;;2.55;;
65552;SDS011;52465;51.560;14.368;2022-08-21T10:29:17;2.85;;;2.40;;
65552;SDS011;52465;51.560;14.368;2022-08-21T10:32:03;2.85;;;2.10;;
65552;SDS011;52465;51.560;14.368;2022-08-21T10:34:35;2.97;;;2.17;;
65552;SDS011;52465;51.560;14.368;2022-08-21T10:40:00;3.95;;;2.33;;
65552;SDS011;52465;51.560;14.368;2022-08-21T10:42:36;4.32;;;2.10;;
65552;SDS011;52465;51.560;14.368;2022-08-21T10:45:12;2.88;;;1.95;;
65552;SDS011;52465;51.560;14.368;2022-08-21T10:47:54;3.60;;;2.55;;
65552;SDS011;52465;51.560;14.368;2022-08-21T11:01:11;3.30;;;2.08;;
65552;SDS011;52465;51.560;14.368;2022-08-21T11:06:55;2.28;;;2.05;;
65552;SDS011;52465;51.560;14.368;2022-08-21T11:09:25;4.40;;;2.13;;
65552;SDS011;52465;51.560;14.368;2022-08-21T11:12:03;2.00;;;1.80;;
65552;SDS011;52465;51.560;14.368;2022-08-21T11:17:36;2.42;;;1.70;;
65552;SDS011;52465;51.560;14.368;2022-08-21T11:23:00;2.33;;;1.75;;
65552;SDS011;52465;51.560;14.368;2022-08-21T11:25:34;2.92;;;1.90;;
65552;SDS011;52465;51.560;14.368;2022-08-21T11:28:14;3.72;;;2.28;;
65552;SDS011;52465;51.560;14.368;2022-08-21T11:31:04;2.53;;;2.00;;
65552;SDS011;52465;51.560;14.368;2022-08-21T11:33:49;2.38;;;1.80;;
65552;SDS011;52465;51.560;14.368;2022-08-21T11:36:42;2.58;;;1.73;;
65552;SDS011;52465;51.560;14.368;2022-08-21T11:39:15;2.42;;;1.90;;
65552;SDS011;52465;51.560;14.368;2022-08-21T11:41:56;3.95;;;2.00;;
65552;SDS011;52465;51.560;14.368;2022-08-21T11:44:32;2.03;;;1.75;;
65552;SDS011;52465;51.560;14.368;2022-08-21T11:47:14;2.28;;;1.80;;
65552;SDS011;52465;51.560;14.368;2022-08-21T11:49:58;4.45;;;1.90;;
65552;SDS011;52465;51.560;14.368;2022-08-21T11:52:48;3.23;;;1.70;;
65552;SDS011;52465;51.560;14.368;2022-08-21T11:55:40;3.97;;;2.00;;
65552;SDS011;52465;51.560;14.368;2022-08-21T11:58:12;4.35;;;2.03;;
65552;SDS011;52465;51.560;14.368;2022-08-21T12:03:26;2.42;;;1.67;;
65552;SDS011;52465;51.560;14.368;2022-08-21T12:06:02;4.32;;;2.72;;
65552;SDS011;52465;51.560;14.368;2022-08-21T12:08:32;4.05;;;2.00;;
65552;SDS011;52465;51.560;14.368;2022-08-21T12:13:40;2.15;;;1.75;;
65552;SDS011;52465;51.560;14.368;2022-08-21T12:16:27;2.83;;;1.70;;
65552;SDS011;52465;51.560;14.368;2022-08-21T12:19:08;2.63;;;1.50;;
65552;SDS011;52465;51.560;14.368;2022-08-21T12:24:34;3.88;;;1.58;;
65552;SDS011;52465;51.560;14.368;2022-08-21T12:29:55;3.22;;;2.00;;
65552;SDS011;52465;51.560;14.368;2022-08-21T12:32:29;2.22;;;1.73;;
65552;SDS011;52465;51.560;14.368;2022-08-21T12:35:14;2.97;;;1.63;;
65552;SDS011;52465;51.560;14.368;2022-08-21T12:37:43;2.40;;;1.73;;
65552;SDS011;52465;51.560;14.368;2022-08-21T12:40:32;3.17;;;1.83;;
65552;SDS011;52465;51.560;14.368;2022-08-21T12:43:04;2.10;;;1.55;;
65552;SDS011;52465;51.560;14.368;2022-08-21T12:45:37;2.72;;;1.60;;
65552;SDS011;52465;51.560;14.368;2022-08-21T12:50:48;2.45;;;1.60;;
65552;SDS011;52465;51.560;14.368;2022-08-21T12:53:41;2.08;;;1.88;;
65552;SDS011;52465;51.560;14.368;2022-08-21T12:56:17;2.03;;;1.80;;
65552;SDS011;52465;51.560;14.368;2022-08-21T12:58:47;2.85;;;1.88;;
65552;SDS011;52465;51.560;14.368;2022-08-21T13:03:48;3.47;;;1.52;;
65552;SDS011;52465;51.560;14.368;2022-08-21T13:06:15;3.55;;;1.85;;
65552;SDS011;52465;51.560;14.368;2022-08-21T13:08:43;2.03;;;1.60;;
65552;SDS011;52465;51.560;14.368;2022-08-21T13:11:11;2.40;;;1.75;;
65552;SDS011;52465;51.560;14.368;2022-08-21T13:16:06;7.10;;;1.80;;
65552;SDS011;52465;51.560;14.368;2022-08-21T13:18:35;5.57;;;1.83;;
65552;SDS011;52465;51.560;14.368;2022-08-21T13:21:09;5.05;;;1.80;;
65552;SDS011;52465;51.560;14.368;2022-08-21T13:23:37;5.10;;;1.63;;
65552;SDS011;52465;51.560;14.368;2022-08-21T13:26:18;3.88;;;1.60;;
65552;SDS011;52465;51.560;14.368;2022-08-21T13:28:45;1.95;;;1.55;;
65552;SDS011;52465;51.560;14.368;2022-08-21T13:31:12;2.83;;;1.55;;
65552;SDS011;52465;51.560;14.368;2022-08-21T13:33:43;5.43;;;1.90;;
65552;SDS011;52465;51.560;14.368;2022-08-21T13:36:10;1.85;;;1.40;;
65552;SDS011;52465;51.560;14.368;2022-08-21T13:38:41;1.90;;;1.50;;
65552;SDS011;52465;51.560;14.368;2022-08-21T13:43:43;2.42;;;1.40;;
65552;SDS011;52465;51.560;14.368;2022-08-21T13:46:11;4.72;;;1.50;;
65552;SDS011;52465;51.560;14.368;2022-08-21T13:48:39;4.03;;;1.50;;
65552;SDS011;52465;51.560;14.368;2022-08-21T13:51:06;2.28;;;1.40;;
65552;SDS011;52465;51.560;14.368;2022-08-21T13:53:33;1.20;;;1.10;;
65552;SDS011;52465;51.560;14.368;2022-08-21T13:56:20;3.55;;;1.40;;
65552;SDS011;52465;51.560;14.368;2022-08-21T13:58:50;1.80;;;1.10;;
65552;SDS011;52465;51.560;14.368;2022-08-21T14:01:20;2.63;;;1.30;;
65552;SDS011;52465;51.560;14.368;2022-08-21T14:03:50;1.73;;;1.20;;
65552;SDS011;52465;51.560;14.368;2022-08-21T14:06:22;2.25;;;1.20;;
65552;SDS011;52465;51.560;14.368;2022-08-21T14:11:19;1.60;;;1.13;;
65552;SDS011;52465;51.560;14.368;2022-08-21T14:13:48;2.15;;;1.20;;
65552;SDS011;52465;51.560;14.368;2022-08-21T14:16:19;2.53;;;1.50;;
65552;SDS011;52465;51.560;14.368;2022-08-21T14:21:40;1.20;;;1.10;;
65552;SDS011;52465;51.560;14.368;2022-08-21T14:24:12;1.73;;;1.02;;
65552;SDS011;52465;51.560;14.368;2022-08-21T14:27:05;2.00;;;1.15;;
65552;SDS011;52465;51.560;14.368;2022-08-21T14:29:34;1.98;;;1.02;;
65552;SDS011;52465;51.560;14.368;2022-08-21T14:32:10;2.55;;;1.20;;
65552;SDS011;52465;51.560;14.368;2022-08-21T14:34:38;2.90;;;1.00;;
65552;SDS011;52465;51.560;14.368;2022-08-21T14:37:03;1.80;;;1.30;;
65552;SDS011;52465;51.560;14.368;2022-08-21T14:39:28;1.83;;;1.30;;
65552;SDS011;52465;51.560;14.368;2022-08-21T14:41:54;2.03;;;1.13;;
65552;SDS011;52465;51.560;14.368;2022-08-21T14:44:22;3.60;;;1.10;;
65552;SDS011;52465;51.560;14.368;2022-08-21T14:46:47;3.42;;;1.30;;
65552;SDS011;52465;51.560;14.368;2022-08-21T14:49:12;2.45;;;1.50;;
65552;SDS011;52465;51.560;14.368;2022-08-21T14:51:39;1.25;;;1.15;;
65552;SDS011;52465;51.560;14.368;2022-08-21T14:54:05;1.27;;;1.10;;
65552;SDS011;52465;51.560;14.368;2022-08-21T14:56:31;2.72;;;1.23;;
65552;SDS011;52465;51.560;14.368;2022-08-21T14:58:59;2.75;;;1.20;;
65552;SDS011;52465;51.560;14.368;2022-08-21T15:01:29;2.22;;;1.10;;
65552;SDS011;52465;51.560;14.368;2022-08-21T15:03:54;1.05;;;0.95;;
65552;SDS011;52465;51.560;14.368;2022-08-21T15:06:19;3.03;;;1.10;;
65552;SDS011;52465;51.560;14.368;2022-08-21T15:08:46;1.67;;;1.00;;
65552;SDS011;52465;51.560;14.368;2022-08-21T15:11:19;2.08;;;1.13;;
65552;SDS011;52465;51.560;14.368;2022-08-21T15:13:47;1.25;;;1.10;;
65552;SDS011;52465;51.560;14.368;2022-08-21T15:16:16;2.33;;;1.27;;
65552;SDS011;52465;51.560;14.368;2022-08-21T15:18:41;1.52;;;1.00;;
65552;SDS011;52465;51.560;14.368;2022-08-21T15:21:07;1.83;;;1.10;;
65552;SDS011;52465;51.560;14.368;2022-08-21T15:23:33;1.20;;;1.10;;
65552;SDS011;52465;51.560;14.368;2022-08-21T15:25:59;1.40;;;1.00;;
65552;SDS011;52465;51.560;14.368;2022-08-21T15:28:25;2.22;;;1.20;;
65552;SDS011;52465;51.560;14.368;2022-08-21T15:30:51;1.58;;;1.10;;
65552;SDS011;52465;51.560;14.368;2022-08-21T15:33:17;2.92;;;1.40;;
65552;SDS011;52465;51.560;14.368;2022-08-21T15:35:43;2.15;;;1.27;;
65552;SDS011;52465;51.560;14.368;2022-08-21T15:38:08;2.25;;;1.13;;
65552;SDS011;52465;51.560;14.368;2022-08-21T15:40:34;2.35;;;1.63;;
65552;SDS011;52465;51.560;14.368;2022-08-21T15:43:01;2.20;;;1.15;;
65552;SDS011;52465;51.560;14.368;2022-08-21T15:45:28;1.20;;;1.10;;
65552;SDS011;52465;51.560;14.368;2022-08-21T15:47:54;4.13;;;1.23;;
65552;SDS011;52465;51.560;14.368;2022-08-21T15:50:21;1.77;;;1.15;;
65552;SDS011;52465;51.560;14.368;2022-08-21T15:52:47;2.33;;;1.00;;
65552;SDS011;52465;51.560;14.368;2022-08-21T15:55:13;1.20;;;1.10;;
65552;SDS011;52465;51.560;14.368;2022-08-21T15:57:42;1.55;;;1.15;;
65552;SDS011;52465;51.560;14.368;2022-08-21T16:00:13;1.50;;;1.10;;
65552;SDS011;52465;51.560;14.368;2022-08-21T16:02:42;1.45;;;1.10;;
65552;SDS011;52465;51.560;14.368;2022-08-21T16:05:10;2.83;;;1.40;;